Time;durP1;ratioP1;P1;durP2;ratioP2;P2;SDS_P1;SDS_P2;PMS_P1;PMS_P2;Temp;Humidity;BMP_temperature;BMP_pressure;BME280_temperature;BME280_humidity;BME280_pressure;Samples;Min_cycle;Max_cycle;Signal;HPM_P1;HPM_P2
2024/04/02 00:02:07;;;;;;;1.17;0.80;;;7.00;99.90;;;;;;5029981;28;20206;-76
2024/04/02 00:04:33;;;;;;;0.80;0.70;;;7.00;99.90;;;;;;5027213;28;20206;-76
2024/04/02 00:06:59;;;;;;;0.80;0.73;;;6.90;99.90;;;;;;5030312;28;20206;-76
2024/04/02 00:09:26;;;;;;;0.90;0.70;;;6.90;99.90;;;;;;5027503;28;20212;-76
2024/04/02 00:11:53;;;;;;;0.90;0.80;;;6.90;99.90;;;;;;5030491;28;20207;-76
2024/04/02 00:14:19;;;;;;;2.42;1.00;;;6.90;99.90;;;;;;5031254;28;20225;-76
2024/04/02 00:16:46;;;;;;;2.50;0.87;;;6.90;99.90;;;;;;5034275;28;20208;-77
2024/04/02 00:19:12;;;;;;;0.90;0.80;;;6.90;99.90;;;;;;5031679;28;20215;-76
2024/04/02 00:21:39;;;;;;;1.50;0.95;;;6.80;99.90;;;;;;5034306;28;20643;-76
2024/04/02 00:24:05;;;;;;;2.08;1.25;;;6.80;99.90;;;;;;5031244;28;20252;-77
2024/04/02 00:26:33;;;;;;;1.02;0.82;;;6.80;99.90;;;;;;5034181;28;20205;-76
2024/04/02 00:28:59;;;;;;;0.85;0.70;;;6.80;99.90;;;;;;5044334;28;20668;-77
2024/04/02 00:31:25;;;;;;;0.90;0.70;;;6.80;99.90;;;;;;5053933;28;20198;-77
2024/04/02 00:33:51;;;;;;;1.52;0.80;;;6.80;99.90;;;;;;5053821;28;20240;-76
2024/04/02 00:36:19;;;;;;;0.80;0.70;;;6.70;99.90;;;;;;5054190;28;20206;-76
2024/04/02 00:38:45;;;;;;;0.80;0.75;;;6.70;99.90;;;;;;5054117;28;20214;-76
2024/04/02 00:41:11;;;;;;;1.00;0.90;;;6.70;99.90;;;;;;5053644;28;20678;-77
2024/04/02 00:43:38;;;;;;;1.25;1.10;;;6.70;99.90;;;;;;5053818;28;20226;-76
2024/04/02 00:46:05;;;;;;;1.00;0.70;;;6.70;99.90;;;;;;5053942;28;20292;-76
2024/04/02 00:48:31;;;;;;;1.17;0.90;;;6.70;99.90;;;;;;5053955;28;20214;-76
2024/04/02 00:50:58;;;;;;;0.80;0.60;;;6.70;99.90;;;;;;5053514;28;20205;-76
2024/04/02 00:53:24;;;;;;;1.00;0.90;;;6.70;99.90;;;;;;5053490;28;20238;-76
2024/04/02 00:55:52;;;;;;;1.10;1.00;;;6.70;99.90;;;;;;5053780;28;20232;-76
2024/04/02 00:58:18;;;;;;;1.05;0.80;;;6.60;99.90;;;;;;5053717;28;21340;-76
2024/04/02 01:00:46;;;;;;;1.38;0.93;;;6.70;99.90;;;;;;5053796;28;20207;-76
2024/04/02 01:03:12;;;;;;;0.80;0.70;;;6.70;99.90;;;;;;5038438;28;20214;-76
2024/04/02 01:05:40;;;;;;;1.30;0.80;;;6.60;99.90;;;;;;5033845;28;20234;-76
2024/04/02 01:08:08;;;;;;;1.10;0.80;;;6.60;99.90;;;;;;5033439;28;20613;-76
2024/04/02 01:10:35;;;;;;;0.80;0.70;;;6.60;99.90;;;;;;5033431;28;20202;-76
2024/04/02 01:13:00;;;;;;;1.00;0.70;;;6.60;99.90;;;;;;5033801;28;20223;-76
2024/04/02 01:15:27;;;;;;;1.00;0.90;;;6.60;99.90;;;;;;5034254;28;20205;-76
2024/04/02 01:17:54;;;;;;;0.80;0.68;;;6.60;99.90;;;;;;5033413;28;20202;-76
2024/04/02 01:20:21;;;;;;;1.25;0.93;;;6.60;99.90;;;;;;5033296;28;20217;-77
2024/04/02 01:22:47;;;;;;;0.80;0.70;;;6.50;99.90;;;;;;5033135;28;20233;-76
2024/04/02 01:25:13;;;;;;;0.90;0.70;;;6.50;99.90;;;;;;5031642;28;20592;-76
2024/04/02 01:27:40;;;;;;;0.95;0.80;;;6.50;99.90;;;;;;5033376;28;20293;-77
2024/04/02 01:30:08;;;;;;;2.45;0.90;;;6.50;99.90;;;;;;5033081;28;20203;-76
2024/04/02 01:32:34;;;;;;;1.27;1.00;;;6.50;99.90;;;;;;5032916;28;20226;-76
2024/04/02 01:35:00;;;;;;;0.90;0.80;;;6.50;99.90;;;;;;5033789;28;20580;-76
2024/04/02 01:37:27;;;;;;;1.38;0.90;;;6.40;99.90;;;;;;5033259;28;20937;-77
2024/04/02 01:39:54;;;;;;;1.00;0.70;;;6.40;99.90;;;;;;5033053;28;20803;-76
2024/04/02 01:42:19;;;;;;;1.02;0.90;;;6.30;99.90;;;;;;5032746;28;20249;-76
2024/04/02 01:44:47;;;;;;;1.00;0.87;;;6.20;99.90;;;;;;5032810;28;20200;-77
2024/04/02 01:47:13;;;;;;;1.00;0.90;;;6.20;99.90;;;;;;5032712;28;20210;-76
2024/04/02 01:49:40;;;;;;;0.90;0.73;;;6.20;99.90;;;;;;5032937;28;20593;-76
2024/04/02 01:52:06;;;;;;;2.28;1.00;;;6.10;99.90;;;;;;5032326;28;20230;-76
2024/04/02 01:54:32;;;;;;;1.00;0.90;;;6.10;99.90;;;;;;5032376;28;20624;-77
2024/04/02 01:56:58;;;;;;;1.70;0.98;;;6.00;99.90;;;;;;5032494;28;20962;-76
2024/04/02 01:59:25;;;;;;;0.90;0.70;;;6.00;99.90;;;;;;5032724;28;20221;-76
2024/04/02 02:01:52;;;;;;;2.25;0.80;;;5.90;99.90;;;;;;5032601;28;20464;-76
2024/04/02 02:04:19;;;;;;;0.90;0.80;;;5.90;99.90;;;;;;5032182;28;20256;-76
2024/04/02 02:06:44;;;;;;;1.13;1.02;;;5.90;99.90;;;;;;5032887;28;20209;-75
2024/04/02 02:09:11;;;;;;;0.80;0.77;;;6.00;99.90;;;;;;5032309;28;20656;-76
2024/04/02 02:11:37;;;;;;;1.10;1.00;;;6.10;99.90;;;;;;5032284;28;20584;-75
2024/04/02 02:14:04;;;;;;;0.93;0.83;;;6.10;99.90;;;;;;5031796;28;20226;-76
2024/04/02 02:16:29;;;;;;;1.10;1.00;;;6.10;99.90;;;;;;5032302;28;20253;-76
2024/04/02 02:18:57;;;;;;;0.90;0.70;;;6.10;99.90;;;;;;5032176;28;20205;-76
2024/04/02 02:21:23;;;;;;;0.93;0.80;;;6.20;99.90;;;;;;5031788;28;20206;-76
2024/04/02 02:23:51;;;;;;;0.80;0.70;;;6.20;99.90;;;;;;5031810;28;20218;-76
2024/04/02 02:26:18;;;;;;;1.00;0.90;;;6.30;99.90;;;;;;5032120;28;20222;-76
2024/04/02 02:28:44;;;;;;;0.80;0.70;;;6.30;99.90;;;;;;5032029;28;20731;-76
2024/04/02 02:31:10;;;;;;;1.38;1.10;;;6.30;99.90;;;;;;5031716;28;20232;-76
2024/04/02 02:33:37;;;;;;;1.20;0.80;;;6.30;99.90;;;;;;5031768;28;20230;-76
2024/04/02 02:36:05;;;;;;;1.23;1.10;;;6.30;99.90;;;;;;5031483;28;20229;-76
2024/04/02 02:38:31;;;;;;;0.90;0.70;;;6.30;99.90;;;;;;5031855;28;20324;-76
2024/04/02 02:41:01;;;;;;;1.00;0.90;;;6.30;99.90;;;;;;5031644;28;20221;-76
2024/04/02 02:43:28;;;;;;;1.00;0.80;;;6.30;99.90;;;;;;5031371;28;20237;-76
2024/04/02 02:45:53;;;;;;;0.80;0.70;;;6.40;99.90;;;;;;5031675;28;20725;-76
2024/04/02 02:48:20;;;;;;;1.00;0.90;;;6.50;99.90;;;;;;5051665;28;20322;-76
2024/04/02 02:50:46;;;;;;;1.27;0.90;;;6.50;99.90;;;;;;5051615;28;20587;-76
2024/04/02 02:53:15;;;;;;;1.13;1.00;;;6.60;99.90;;;;;;5051593;28;20228;-76
2024/04/02 02:55:41;;;;;;;1.38;0.70;;;6.70;99.90;;;;;;5051602;28;20212;-76
2024/04/02 02:58:07;;;;;;;1.00;0.90;;;6.80;99.90;;;;;;5051356;28;20206;-76
2024/04/02 03:00:38;;;;;;;0.80;0.70;;;6.80;99.90;;;;;;5051670;28;20217;-76
2024/04/02 03:03:05;;;;;;;2.25;0.82;;;6.90;99.90;;;;;;5050926;28;20229;-76
2024/04/02 03:05:31;;;;;;;0.70;0.70;;;6.90;99.90;;;;;;5047755;28;20578;-76
2024/04/02 03:07:58;;;;;;;0.90;0.80;;;6.90;99.90;;;;;;5025311;28;20210;-76
2024/04/02 03:10:25;;;;;;;1.35;1.00;;;6.90;99.90;;;;;;5023434;28;20201;-77
2024/04/02 03:12:52;;;;;;;1.85;0.80;;;6.90;99.90;;;;;;5025326;28;20711;-77
2024/04/02 03:15:17;;;;;;;0.80;0.70;;;6.80;99.90;;;;;;5023717;28;20202;-77
2024/04/02 03:17:44;;;;;;;0.90;0.70;;;6.80;99.90;;;;;;5026915;28;20194;-76
2024/04/02 03:20:11;;;;;;;0.80;0.70;;;6.80;99.90;;;;;;5030631;28;20232;-75
2024/04/02 03:22:37;;;;;;;1.20;0.85;;;6.70;99.90;;;;;;5030475;28;20217;-76
2024/04/02 03:25:04;;;;;;;1.90;0.80;;;6.70;99.90;;;;;;5027664;28;20670;-76
2024/04/02 03:27:33;;;;;;;0.80;0.68;;;6.70;99.90;;;;;;5022650;28;20205;-76
2024/04/02 03:29:58;;;;;;;2.25;0.90;;;6.70;99.90;;;;;;5025516;28;20224;-75
2024/04/02 03:32:25;;;;;;;0.90;0.90;;;6.60;99.90;;;;;;5022516;28;20683;-76
2024/04/02 03:34:51;;;;;;;0.80;0.60;;;6.60;99.90;;;;;;5024874;28;20241;-76
2024/04/02 03:37:17;;;;;;;0.80;0.70;;;6.60;99.90;;;;;;5026252;28;20199;-76
2024/04/02 03:39:44;;;;;;;1.00;0.80;;;6.60;99.90;;;;;;5024227;28;20209;-77
2024/04/02 03:42:11;;;;;;;1.10;0.85;;;6.60;99.90;;;;;;5024395;28;20669;-77
2024/04/02 03:44:39;;;;;;;0.82;0.70;;;6.60;99.90;;;;;;5023056;28;20198;-77
2024/04/02 03:47:05;;;;;;;0.80;0.70;;;6.60;99.90;;;;;;5025693;28;20201;-76
2024/04/02 03:49:32;;;;;;;1.50;0.90;;;6.60;99.90;;;;;;5028845;28;20562;-74
2024/04/02 03:51:58;;;;;;;1.00;0.70;;;6.70;99.90;;;;;;5033824;28;20469;-75
2024/04/02 03:54:24;;;;;;;0.80;0.80;;;6.70;99.90;;;;;;5033958;28;20230;-74
2024/04/02 03:56:50;;;;;;;0.80;0.70;;;6.80;99.90;;;;;;5034502;28;20229;-74
2024/04/02 03:59:17;;;;;;;1.30;0.83;;;6.80;99.90;;;;;;5034675;28;20271;-74
2024/04/02 04:01:44;;;;;;;0.80;0.60;;;6.80;99.90;;;;;;5033516;28;20206;-74
2024/04/02 04:04:10;;;;;;;0.90;0.80;;;6.70;99.90;;;;;;5034582;28;20218;-74
2024/04/02 04:06:36;;;;;;;0.95;0.80;;;6.70;99.90;;;;;;5035746;28;20208;-75
2024/04/02 04:09:03;;;;;;;1.00;0.80;;;6.70;99.90;;;;;;5034467;28;20209;-75
2024/04/02 04:11:29;;;;;;;1.25;1.10;;;6.70;99.90;;;;;;5034467;28;20217;-75
2024/04/02 04:13:55;;;;;;;1.10;1.00;;;6.70;99.90;;;;;;5034310;28;20233;-75
2024/04/02 04:16:21;;;;;;;1.00;0.90;;;6.70;99.90;;;;;;5034587;28;20213;-74
2024/04/02 04:18:49;;;;;;;1.33;0.90;;;6.70;99.90;;;;;;5034605;28;20594;-75
2024/04/02 04:21:15;;;;;;;0.80;0.70;;;6.60;99.90;;;;;;5034172;28;20213;-75
2024/04/02 04:23:42;;;;;;;0.80;0.70;;;6.60;99.90;;;;;;5034429;28;20309;-74
2024/04/02 04:26:08;;;;;;;0.93;0.80;;;6.60;99.90;;;;;;5034210;28;20202;-75
2024/04/02 04:28:34;;;;;;;1.23;0.90;;;6.60;99.90;;;;;;5034425;28;20209;-75
2024/04/02 04:31:02;;;;;;;0.90;0.73;;;6.60;99.90;;;;;;5034048;28;20213;-75
2024/04/02 04:33:30;;;;;;;0.80;0.80;;;6.60;99.90;;;;;;5033863;28;20249;-75
2024/04/02 04:35:57;;;;;;;0.90;0.70;;;6.50;99.90;;;;;;5034258;28;20671;-75
2024/04/02 04:38:28;;;;;;;1.92;1.00;;;6.50;99.90;;;;;;5034061;28;20260;-75
2024/04/02 04:40:54;;;;;;;2.75;0.80;;;6.50;99.90;;;;;;5034053;28;20573;-75
2024/04/02 04:43:20;;;;;;;0.80;0.70;;;6.50;99.90;;;;;;5033624;28;20222;-75
2024/04/02 04:45:52;;;;;;;1.10;1.00;;;6.50;99.90;;;;;;5034247;28;20237;-74
2024/04/02 04:48:19;;;;;;;0.85;0.73;;;6.50;99.90;;;;;;5034540;28;20690;-75
2024/04/02 04:50:57;;;;;;;0.80;0.70;;;6.50;99.90;;;;;;5036788;28;20211;-75
2024/04/02 04:53:24;;;;;;;0.80;0.70;;;6.50;99.90;;;;;;5035017;28;20629;-75
2024/04/02 04:55:50;;;;;;;0.80;0.73;;;6.40;99.90;;;;;;5033890;28;20218;-75
2024/04/02 04:58:17;;;;;;;2.00;0.70;;;6.50;99.90;;;;;;5033495;28;20671;-74
2024/04/02 05:00:43;;;;;;;1.00;0.90;;;6.50;99.90;;;;;;5033624;28;20879;-74
2024/04/02 05:03:10;;;;;;;0.80;0.60;;;6.50;99.90;;;;;;5033438;28;20225;-75
2024/04/02 05:05:36;;;;;;;0.70;0.70;;;6.60;99.90;;;;;;5033583;28;20671;-75
2024/04/02 05:08:25;;;;;;;1.47;1.00;;;6.60;99.90;;;;;;5033529;28;20213;-75
2024/04/02 05:10:52;;;;;;;0.93;0.75;;;6.60;99.90;;;;;;5033656;28;20306;-74
2024/04/02 05:13:19;;;;;;;0.88;0.77;;;6.60;99.90;;;;;;5033237;28;20253;-75
2024/04/02 05:15:45;;;;;;;0.80;0.70;;;6.60;99.90;;;;;;5033649;28;20675;-75
2024/04/02 05:18:12;;;;;;;0.80;0.70;;;6.60;99.90;;;;;;5033145;28;20217;-75
2024/04/02 05:20:38;;;;;;;1.02;0.90;;;6.70;99.90;;;;;;5033182;28;20581;-75
2024/04/02 05:23:06;;;;;;;0.80;0.70;;;6.70;99.90;;;;;;5032957;28;20225;-75
2024/04/02 05:25:33;;;;;;;0.77;0.70;;;6.80;99.90;;;;;;5033374;28;20237;-75
2024/04/02 05:28:00;;;;;;;0.80;0.60;;;6.80;99.90;;;;;;5033310;28;20384;-75
2024/04/02 05:30:25;;;;;;;0.80;0.70;;;6.80;99.90;;;;;;5033077;28;20228;-75
2024/04/02 05:32:52;;;;;;;0.80;0.70;;;6.90;99.90;;;;;;5033049;28;20225;-75
2024/04/02 05:35:20;;;;;;;0.80;0.80;;;6.90;99.90;;;;;;5032690;28;20859;-75
2024/04/02 05:37:48;;;;;;;0.90;0.70;;;6.90;99.90;;;;;;5033105;28;20230;-75
2024/04/02 05:40:14;;;;;;;1.00;0.85;;;6.90;99.90;;;;;;5032755;28;20203;-75
2024/04/02 05:42:43;;;;;;;0.80;0.70;;;6.90;99.90;;;;;;5032879;28;20234;-74
2024/04/02 05:45:09;;;;;;;1.13;0.90;;;6.90;99.90;;;;;;5032680;28;20506;-75
2024/04/02 05:47:35;;;;;;;0.80;0.70;;;7.00;99.90;;;;;;5032976;28;20593;-74
2024/04/02 05:50:02;;;;;;;0.80;0.70;;;7.00;99.90;;;;;;5032822;28;20838;-75
2024/04/02 05:52:28;;;;;;;0.80;0.80;;;7.10;99.90;;;;;;5032471;28;20288;-74
2024/04/02 05:54:54;;;;;;;0.93;0.90;;;7.10;99.90;;;;;;5032453;28;20226;-75
2024/04/02 05:57:21;;;;;;;1.90;1.00;;;7.20;99.90;;;;;;5032576;28;20215;-75
2024/04/02 05:59:50;;;;;;;1.08;0.90;;;7.10;99.90;;;;;;5032727;28;20799;-75
2024/04/02 06:02:16;;;;;;;1.00;0.80;;;7.10;99.90;;;;;;5032187;28;20606;-74
2024/04/02 06:04:42;;;;;;;1.05;0.80;;;7.10;99.90;;;;;;5031732;28;20203;-73
2024/04/02 06:07:09;;;;;;;0.87;0.70;;;7.10;99.90;;;;;;5032593;28;20199;-73
2024/04/02 06:09:35;;;;;;;0.70;0.60;;;7.10;99.90;;;;;;5031874;28;20206;-74
2024/04/02 06:12:02;;;;;;;1.10;1.00;;;7.20;99.90;;;;;;5032172;28;20215;-74
2024/04/02 06:14:28;;;;;;;0.95;0.80;;;7.20;99.90;;;;;;5031962;28;20782;-73
2024/04/02 06:16:56;;;;;;;0.90;0.80;;;7.30;99.90;;;;;;5032433;28;20205;-74
2024/04/02 06:19:21;;;;;;;1.10;0.70;;;7.30;99.90;;;;;;5032108;28;20472;-73
2024/04/02 06:21:48;;;;;;;1.50;1.00;;;7.50;99.90;;;;;;5032282;28;20208;-74
2024/04/02 06:24:14;;;;;;;0.80;0.70;;;7.60;99.90;;;;;;5031885;28;20224;-74
2024/04/02 06:26:41;;;;;;;0.70;0.60;;;7.70;99.90;;;;;;5032240;28;20203;-74
2024/04/02 06:29:06;;;;;;;0.80;0.70;;;7.70;99.90;;;;;;5032051;28;20219;-74
2024/04/02 06:31:33;;;;;;;1.00;0.70;;;7.70;99.90;;;;;;5031762;28;20213;-74
2024/04/02 06:34:00;;;;;;;0.80;0.70;;;7.70;99.90;;;;;;5031683;28;20234;-74
2024/04/02 06:36:29;;;;;;;0.80;0.70;;;7.70;99.90;;;;;;5031956;28;20231;-74
2024/04/02 06:38:55;;;;;;;1.02;0.80;;;7.70;99.90;;;;;;5032119;28;20221;-74
2024/04/02 06:41:22;;;;;;;0.93;0.70;;;7.80;99.90;;;;;;5032120;28;20211;-74
2024/04/02 06:43:47;;;;;;;0.80;0.70;;;7.80;99.90;;;;;;5031812;28;20856;-74
2024/04/02 06:46:14;;;;;;;0.80;0.60;;;7.80;99.90;;;;;;5031822;28;20201;-74
2024/04/02 06:48:40;;;;;;;0.80;0.70;;;7.80;99.90;;;;;;5031602;28;20213;-74
2024/04/02 06:51:08;;;;;;;0.90;0.70;;;7.90;99.90;;;;;;5031490;28;20666;-74
2024/04/02 06:53:34;;;;;;;0.80;0.70;;;8.00;99.90;;;;;;5031341;28;20263;-74
2024/04/02 06:56:01;;;;;;;1.25;0.70;;;8.20;99.90;;;;;;5031576;28;20229;-74
2024/04/02 06:58:28;;;;;;;1.08;0.95;;;8.30;99.90;;;;;;5031436;28;20208;-74
2024/04/02 07:00:55;;;;;;;0.80;0.68;;;8.50;99.90;;;;;;5031429;28;20204;-74
2024/04/02 07:03:22;;;;;;;0.95;0.80;;;8.70;99.90;;;;;;5031164;28;20229;-74
2024/04/02 07:05:52;;;;;;;1.13;0.70;;;8.70;99.90;;;;;;5031556;28;20201;-74
2024/04/02 07:08:23;;;;;;;0.80;0.70;;;8.70;99.90;;;;;;5031411;28;20208;-74
2024/04/02 07:10:58;;;;;;;0.80;0.70;;;8.60;99.90;;;;;;5031409;28;20259;-74
2024/04/02 07:13:24;;;;;;;0.90;0.80;;;8.50;99.90;;;;;;5031095;28;20227;-74
2024/04/02 07:15:51;;;;;;;1.65;0.70;;;8.40;99.90;;;;;;5031532;28;20233;-74
2024/04/02 07:18:17;;;;;;;1.10;0.85;;;8.40;99.90;;;;;;5031573;28;20209;-72
2024/04/02 07:20:44;;;;;;;0.70;0.60;;;8.40;99.90;;;;;;5033907;28;20200;-74
2024/04/02 07:23:09;;;;;;;1.00;0.88;;;8.60;99.90;;;;;;5049990;28;20235;-74
2024/04/02 07:25:38;;;;;;;0.80;0.70;;;8.70;99.90;;;;;;5050608;28;20204;-74
2024/04/02 07:28:05;;;;;;;0.80;0.70;;;9.00;99.90;;;;;;5051183;28;20208;-80
2024/04/02 07:30:31;;;;;;;0.80;0.70;;;8.90;99.90;;;;;;5053391;28;20200;-80
2024/04/02 07:32:57;;;;;;;0.80;0.68;;;8.80;99.90;;;;;;5051810;28;20235;-78
2024/04/02 07:35:24;;;;;;;0.80;0.80;;;8.70;99.90;;;;;;5051393;28;20235;-80
2024/04/02 07:37:50;;;;;;;2.15;1.00;;;8.60;99.90;;;;;;5051049;28;20208;-77
2024/04/02 07:40:16;;;;;;;0.90;0.80;;;8.50;99.90;;;;;;5051304;28;20214;-77
2024/04/02 07:42:43;;;;;;;1.30;0.90;;;8.50;99.90;;;;;;5050489;28;20238;-77
2024/04/02 07:45:10;;;;;;;1.90;0.90;;;8.60;99.90;;;;;;5051137;28;20221;-77
2024/04/02 07:47:36;;;;;;;1.17;0.82;;;8.60;99.90;;;;;;5051051;28;20582;-77
2024/04/02 07:50:03;;;;;;;1.27;0.90;;;8.70;99.90;;;;;;5050989;28;20201;-77
2024/04/02 07:52:30;;;;;;;2.58;1.00;;;8.80;99.90;;;;;;5050357;28;20229;-79
2024/04/02 07:55:02;;;;;;;3.28;0.90;;;9.00;99.90;;;;;;5027265;28;20220;-74
2024/04/02 07:57:29;;;;;;;1.20;0.88;;;9.40;99.90;;;;;;5023816;28;20292;-79
2024/04/02 07:59:56;;;;;;;1.10;0.90;;;9.70;99.90;;;;;;5028624;28;20208;-73
2024/04/02 08:02:23;;;;;;;0.80;0.75;;;9.90;99.90;;;;;;5026572;28;20315;-73
2024/04/02 08:04:51;;;;;;;2.45;0.70;;;9.70;99.90;;;;;;5026826;28;20296;-74
2024/04/02 08:07:18;;;;;;;0.90;0.70;;;9.50;99.90;;;;;;5030517;28;20786;-74
2024/04/02 08:09:44;;;;;;;1.00;0.88;;;9.70;99.90;;;;;;5026939;28;20284;-74
2024/04/02 08:12:11;;;;;;;5.73;1.80;;;9.90;99.90;;;;;;5030237;28;20297;-74
2024/04/02 08:14:37;;;;;;;2.17;1.10;;;9.80;99.90;;;;;;5026940;28;20491;-74
2024/04/02 08:17:05;;;;;;;1.30;1.00;;;9.80;99.90;;;;;;5030377;28;20208;-74
2024/04/02 08:19:31;;;;;;;2.17;1.20;;;10.40;99.90;;;;;;5027819;28;20480;-75
2024/04/02 08:21:58;;;;;;;2.60;0.83;;;11.10;99.90;;;;;;5030302;28;20232;-75
2024/04/02 08:24:25;;;;;;;1.05;0.90;;;11.10;99.90;;;;;;5027765;28;20452;-75
2024/04/02 08:26:51;;;;;;;1.42;0.90;;;10.90;99.90;;;;;;5030613;28;20663;-75
2024/04/02 08:29:17;;;;;;;1.65;0.85;;;10.80;99.90;;;;;;5028066;28;20204;-75
2024/04/02 08:31:45;;;;;;;1.98;0.90;;;10.80;99.90;;;;;;5030630;28;20252;-75
2024/04/02 08:34:12;;;;;;;1.60;1.35;;;11.00;99.90;;;;;;5040288;28;20241;-74
2024/04/02 08:36:39;;;;;;;1.42;0.93;;;11.20;99.90;;;;;;5034022;28;20711;-74
2024/04/02 08:39:06;;;;;;;1.25;0.98;;;11.30;99.90;;;;;;5031902;28;20616;-74
2024/04/02 08:41:37;;;;;;;1.38;1.00;;;11.20;99.90;;;;;;5033421;28;20205;-74
2024/04/02 08:44:03;;;;;;;2.97;0.98;;;10.90;99.90;;;;;;5030307;28;20237;-74
2024/04/02 08:46:30;;;;;;;2.55;0.98;;;10.60;99.90;;;;;;5026115;28;20247;-75
2024/04/02 08:48:57;;;;;;;1.30;1.00;;;10.50;99.90;;;;;;5032240;28;20660;-75
2024/04/02 08:51:27;;;;;;;1.27;1.10;;;10.50;99.90;;;;;;5033294;28;20299;-74
2024/04/02 08:53:53;;;;;;;2.38;0.90;;;10.50;99.90;;;;;;5031864;28;20320;-74
2024/04/02 08:56:19;;;;;;;1.87;1.20;;;10.50;99.90;;;;;;5035794;28;20308;-74
2024/04/02 08:58:46;;;;;;;1.73;0.95;;;10.30;99.90;;;;;;5046015;28;20468;-74
2024/04/02 09:01:14;;;;;;;1.10;0.80;;;10.10;99.90;;;;;;5033097;28;20198;-74
2024/04/02 09:03:40;;;;;;;4.20;1.00;;;10.00;99.90;;;;;;5032990;28;20773;-74
2024/04/02 09:06:07;;;;;;;0.90;0.70;;;10.00;99.90;;;;;;5033301;28;20251;-74
2024/04/02 09:08:43;;;;;;;1.48;0.90;;;10.00;99.90;;;;;;5028284;28;20206;-74
2024/04/02 09:11:10;;;;;;;0.88;0.70;;;9.90;99.90;;;;;;5031582;28;20308;-74
2024/04/02 09:13:37;;;;;;;1.10;0.90;;;10.40;99.90;;;;;;5027918;28;20230;-74
2024/04/02 09:16:04;;;;;;;1.42;1.00;;;11.40;99.90;;;;;;5026918;28;20230;-74
2024/04/02 09:18:32;;;;;;;1.40;1.15;;;12.30;99.90;;;;;;5029137;28;20198;-75
2024/04/02 09:21:00;;;;;;;1.03;0.93;;;13.20;99.90;;;;;;5021508;28;20205;-74
2024/04/02 09:23:26;;;;;;;1.23;0.80;;;14.00;99.90;;;;;;5049368;28;20473;-75
2024/04/02 09:25:54;;;;;;;1.30;0.90;;;14.60;99.90;;;;;;5033129;28;20465;-75
2024/04/02 09:28:20;;;;;;;1.07;0.80;;;13.80;99.90;;;;;;5031042;28;20214;-74
2024/04/02 09:30:47;;;;;;;2.87;1.90;;;13.40;99.90;;;;;;5027258;28;20472;-74
2024/04/02 09:33:16;;;;;;;2.13;1.60;;;13.30;99.90;;;;;;5031964;28;20480;-74
2024/04/02 09:36:05;;;;;;;2.60;1.30;;;14.30;99.90;;;;;;5027382;28;20527;-75
2024/04/02 09:38:32;;;;;;;3.77;1.10;;;15.30;99.90;;;;;;5029770;28;20469;-75
2024/04/02 09:41:01;;;;;;;1.53;1.20;;;15.70;99.90;;;;;;5029196;28;20464;-75
2024/04/02 09:43:29;;;;;;;1.00;0.80;;;16.10;99.90;;;;;;5030149;28;20481;-75
2024/04/02 09:45:57;;;;;;;1.90;1.20;;;16.60;99.90;;;;;;5027833;28;20456;-75
2024/04/02 09:48:25;;;;;;;1.50;1.00;;;17.10;99.40;;;;;;5031515;28;20487;-75
2024/04/02 09:50:53;;;;;;;1.50;0.80;;;17.40;99.00;;;;;;5028380;28;20472;-74
2024/04/02 09:53:19;;;;;;;1.10;1.00;;;17.60;98.70;;;;;;5031795;28;20887;-75
2024/04/02 09:55:48;;;;;;;1.00;0.80;;;17.90;97.60;;;;;;5027258;28;20488;-75
2024/04/02 09:58:15;;;;;;;1.00;0.70;;;18.00;98.20;;;;;;5032592;28;20519;-75
2024/04/02 10:00:46;;;;;;;1.90;1.23;;;17.90;97.50;;;;;;5026270;28;21200;-75
2024/04/02 10:03:13;;;;;;;2.10;0.97;;;17.50;97.00;;;;;;5039190;28;20524;-75
2024/04/02 10:05:40;;;;;;;1.50;0.93;;;16.90;97.80;;;;;;5032938;28;20492;-75
2024/04/02 10:08:07;;;;;;;2.00;1.00;;;16.30;97.80;;;;;;5031992;28;20464;-74
2024/04/02 10:10:40;;;;;;;1.53;0.80;;;15.60;97.60;;;;;;5027197;28;20460;-74
2024/04/02 10:13:06;;;;;;;1.97;0.90;;;14.80;98.50;;;;;;5036048;28;20953;-74
2024/04/02 10:15:34;;;;;;;1.50;0.80;;;14.60;99.50;;;;;;5033884;28;20565;-75
2024/04/02 10:18:02;;;;;;;1.50;0.97;;;14.50;98.90;;;;;;5032072;28;20465;-74
2024/04/02 10:20:31;;;;;;;2.20;0.80;;;13.80;98.90;;;;;;5039332;28;20481;-74
2024/04/02 10:22:57;;;;;;;1.77;0.90;;;13.70;98.80;;;;;;5051897;28;20534;-74
2024/04/02 10:25:25;;;;;;;2.07;1.00;;;13.70;99.10;;;;;;5035332;28;20955;-75
2024/04/02 10:27:53;;;;;;;1.47;0.87;;;14.60;98.60;;;;;;5031715;28;20460;-75
2024/04/02 10:30:21;;;;;;;2.20;1.17;;;15.80;98.10;;;;;;5027872;28;20518;-74
2024/04/02 10:32:49;;;;;;;4.03;0.87;;;16.40;97.40;;;;;;5031621;28;20480;-74
2024/04/02 10:35:17;;;;;;;1.60;1.13;;;16.10;96.50;;;;;;5027257;28;20481;-75
2024/04/02 10:37:44;;;;;;;1.47;0.90;;;15.60;97.70;;;;;;5032245;28;20460;-75
2024/04/02 10:40:11;;;;;;;1.40;1.00;;;15.10;97.80;;;;;;5028392;28;20471;-74
2024/04/02 10:42:38;;;;;;;2.80;1.00;;;13.90;99.80;;;;;;5031474;28;20485;-74
2024/04/02 10:45:06;;;;;;;1.87;1.20;;;12.80;99.90;;;;;;5028027;28;20488;-74
2024/04/02 10:47:32;;;;;;;1.17;0.80;;;11.90;99.90;;;;;;5031366;28;20463;-74
2024/04/02 10:50:00;;;;;;;1.97;1.00;;;11.50;99.90;;;;;;5028203;28;20198;-74
2024/04/02 10:52:25;;;;;;;3.20;1.00;;;12.50;99.90;;;;;;5031907;28;20226;-74
2024/04/02 10:54:52;;;;;;;3.77;1.10;;;14.00;99.90;;;;;;5029170;28;20494;-74
2024/04/02 10:57:18;;;;;;;1.00;0.73;;;15.80;99.90;;;;;;5030967;28;20206;-75
2024/04/02 10:59:45;;;;;;;1.43;1.00;;;17.40;99.90;;;;;;5028945;28;20949;-75
2024/04/02 11:02:17;;;;;;;1.13;0.70;;;18.50;99.90;;;;;;5031024;28;20456;-74
2024/04/02 11:04:44;;;;;;;1.97;1.00;;;19.40;99.10;;;;;;5028987;28;20460;-75
2024/04/02 11:07:12;;;;;;;1.13;1.03;;;20.30;96.70;;;;;;5031409;28;20468;-75
2024/04/02 11:09:43;;;;;;;1.10;0.80;;;20.60;95.90;;;;;;5026512;28;21052;-75
2024/04/02 11:12:21;;;;;;;2.07;0.93;;;20.20;94.60;;;;;;5028354;28;20843;-75
2024/04/02 11:15:15;;;;;;;2.60;1.10;;;19.40;95.10;;;;;;5027697;28;20464;-75
2024/04/02 11:17:55;;;;;;;2.20;0.97;;;19.50;95.50;;;;;;5029500;28;20460;-75
2024/04/02 11:20:22;;;;;;;2.60;1.00;;;19.00;94.30;;;;;;5027821;28;20456;-74
2024/04/02 11:25:34;;;;;;;2.67;0.90;;;16.70;98.10;;;;;;5030223;28;20827;-74
2024/04/02 11:28:08;;;;;;;2.40;1.20;;;15.40;99.90;;;;;;5029919;28;20468;-74
2024/04/02 11:30:33;;;;;;;1.20;1.00;;;14.50;99.90;;;;;;5027775;28;20540;-74
2024/04/02 11:33:00;;;;;;;1.30;0.87;;;14.10;99.90;;;;;;5028009;28;20579;-75
2024/04/02 11:35:27;;;;;;;1.83;0.90;;;14.70;99.90;;;;;;5027102;28;20801;-74
2024/04/02 11:37:55;;;;;;;1.00;0.87;;;15.70;99.90;;;;;;5029184;28;20460;-74
2024/04/02 11:40:21;;;;;;;0.80;0.70;;;16.60;99.90;;;;;;5020557;28;20456;-74
2024/04/02 11:43:10;;;;;;;1.37;0.87;;;17.00;99.90;;;;;;5030423;28;20483;-74
2024/04/02 11:45:53;;;;;;;1.70;1.17;;;16.60;99.90;;;;;;5022906;28;20456;-74
2024/04/02 11:48:19;;;;;;;1.10;0.80;;;15.50;99.90;;;;;;5026958;28;20966;-74
2024/04/02 11:50:46;;;;;;;1.30;1.20;;;15.00;99.90;;;;;;5026787;28;20467;-74
2024/04/02 11:53:14;;;;;;;4.43;1.00;;;15.70;99.90;;;;;;5038379;28;20491;-74
2024/04/02 11:55:41;;;;;;;1.43;0.87;;;16.60;99.90;;;;;;5030578;28;20488;-74
2024/04/02 12:00:52;;;;;;;1.97;0.90;;;17.00;98.90;;;;;;5030740;28;20593;-74
2024/04/02 12:03:19;;;;;;;0.90;0.80;;;16.30;99.60;;;;;;5029219;28;20487;-74
2024/04/02 12:05:45;;;;;;;1.50;0.80;;;15.90;99.30;;;;;;5025294;28;20445;-74
2024/04/02 12:08:12;;;;;;;0.90;0.80;;;15.40;99.90;;;;;;5031369;28;20479;-75
2024/04/02 12:10:40;;;;;;;3.43;0.90;;;14.90;99.90;;;;;;5026693;28;20574;-75
2024/04/02 12:13:05;;;;;;;1.50;1.03;;;14.50;99.90;;;;;;5032575;28;20475;-74
2024/04/02 12:15:33;;;;;;;1.83;0.80;;;14.80;99.90;;;;;;5038349;28;20487;-75
2024/04/02 12:17:59;;;;;;;0.80;0.70;;;15.80;99.90;;;;;;5033185;28;20216;-76
2024/04/02 12:20:26;;;;;;;1.00;0.80;;;17.10;99.50;;;;;;5044175;28;20464;-75
2024/04/02 12:22:51;;;;;;;1.20;0.70;;;17.90;97.90;;;;;;5040761;28;20475;-75
2024/04/02 12:25:18;;;;;;;1.20;0.80;;;17.90;97.80;;;;;;5035189;28;20462;-75
2024/04/02 12:27:45;;;;;;;1.43;1.03;;;17.70;97.80;;;;;;5047045;28;20210;-75
2024/04/02 12:30:13;;;;;;;1.43;0.80;;;18.20;97.80;;;;;;5030274;28;20469;-73
2024/04/02 12:32:41;;;;;;;1.03;0.80;;;19.00;97.10;;;;;;5025166;28;20975;-73
2024/04/02 12:35:08;;;;;;;2.57;0.90;;;18.40;95.90;;;;;;5043826;28;20876;-75
2024/04/02 12:37:34;;;;;;;0.90;0.70;;;17.00;96.20;;;;;;5050727;28;20906;-75
2024/04/02 12:40:00;;;;;;;1.93;0.90;;;16.00;97.30;;;;;;5045241;28;20464;-75
2024/04/02 12:42:26;;;;;;;1.10;0.73;;;15.10;99.20;;;;;;5050636;28;20216;-75
2024/04/02 12:44:54;;;;;;;1.13;0.90;;;14.80;99.90;;;;;;5039939;28;20464;-75
2024/04/02 12:47:21;;;;;;;3.00;0.70;;;15.40;99.90;;;;;;5050382;28;20198;-75
2024/04/02 12:49:48;;;;;;;1.30;0.80;;;16.70;99.90;;;;;;5047880;28;20973;-75
2024/04/02 12:52:14;;;;;;;1.00;0.80;;;17.00;99.90;;;;;;5041988;28;20963;-75
2024/04/02 12:54:41;;;;;;;1.17;0.90;;;17.70;97.30;;;;;;5038292;28;20467;-74
2024/04/02 12:57:07;;;;;;;1.13;1.03;;;18.20;96.50;;;;;;5047736;28;20870;-73
2024/04/02 12:59:33;;;;;;;1.37;0.87;;;18.70;96.70;;;;;;5049844;28;20472;-73